Time;durP1;ratioP1;P1;durP2;ratioP2;P2;SDS_P1;SDS_P2;PMS_P1;PMS_P2;Temp;Humidity;BMP_temperature;BMP_pressure;BME280_temperature;BME280_humidity;BME280_pressure;Samples;Min_cycle;Max_cycle;Signal;HPM_P1;HPM_P2
2021/08/30 00:00:54;;;;;;;15.40;13.30;;;;;;;23.90;65.30;99489.98;117413;1183;23432;-59
2021/08/30 00:03:23;;;;;;;16.00;13.60;;;;;;;23.88;65.35;99490.49;117364;1185;23452;-65
2021/08/30 00:05:53;;;;;;;15.80;13.90;;;;;;;23.76;65.37;99489.45;117370;1185;23442;-59
2021/08/30 00:08:31;;;;;;;14.90;13.40;;;;;;;23.69;65.34;99486.69;117360;1184;24270;-59
2021/08/30 00:11:01;;;;;;;18.30;14.00;;;;;;;23.64;65.38;99485.14;117474;1183;24152;-60
2021/08/30 00:13:32;;;;;;;16.40;14.30;;;;;;;23.60;65.51;99484.38;117339;1184;22797;-62
2021/08/30 00:16:00;;;;;;;18.20;15.10;;;;;;;23.56;65.56;99483.79;117403;1184;23520;-59
2021/08/30 00:18:30;;;;;;;19.30;14.90;;;;;;;23.46;65.66;99488.17;117367;1184;23468;-65
2021/08/30 00:20:58;;;;;;;16.30;14.40;;;;;;;23.37;65.82;99479.56;117400;1184;21858;-63
2021/08/30 00:23:30;;;;;;;21.20;15.60;;;;;;;23.36;65.94;99480.17;117345;1185;23442;-65
2021/08/30 00:26:01;;;;;;;18.10;14.60;;;;;;;23.34;65.88;99476.23;117409;1185;23469;-59
2021/08/30 00:28:29;;;;;;;18.40;15.80;;;;;;;23.30;65.92;99472.61;117381;1185;21996;-66
2021/08/30 00:30:58;;;;;;;16.20;14.40;;;;;;;23.28;66.11;99474.52;117455;1183;23442;-60
2021/08/30 00:33:26;;;;;;;17.50;14.40;;;;;;;23.28;66.02;99476.33;117398;1183;22616;-66
2021/08/30 00:36:14;;;;;;;14.80;13.30;;;;;;;23.27;66.04;99480.84;117352;1185;21986;-59
2021/08/30 00:38:42;;;;;;;18.20;13.10;;;;;;;23.28;66.00;99482.77;117345;1182;23533;-59
2021/08/30 00:41:14;;;;;;;17.10;14.50;;;;;;;23.28;65.70;99484.36;117407;1185;23442;-59
2021/08/30 00:43:42;;;;;;;21.70;13.40;;;;;;;23.29;65.32;99483.02;117391;1182;22708;-59
2021/08/30 00:46:10;;;;;;;18.90;14.60;;;;;;;23.27;65.35;99484.66;117479;1185;21855;-65
2021/08/30 00:48:39;;;;;;;15.30;13.50;;;;;;;23.23;65.51;99486.02;117398;1183;23440;-66
2021/08/30 00:51:08;;;;;;;16.70;14.40;;;;;;;23.23;65.60;99487.85;117264;1185;21863;-61
2021/08/30 00:53:37;;;;;;;18.80;14.40;;;;;;;23.21;65.71;99488.89;117880;1186;23457;-59
2021/08/30 00:56:05;;;;;;;16.70;15.10;;;;;;;23.18;65.76;99490.15;117340;1186;21904;-66
2021/08/30 00:58:33;;;;;;;19.40;15.80;;;;;;;23.14;65.67;99488.65;117389;1185;22510;-60
2021/08/30 01:01:01;;;;;;;18.90;14.90;;;;;;;23.08;65.77;99489.34;117441;1185;21855;-65
2021/08/30 01:03:30;;;;;;;22.40;16.40;;;;;;;23.02;65.83;99485.09;117428;1184;21860;-65
2021/08/30 01:06:03;;;;;;;22.00;17.90;;;;;;;22.93;66.11;99479.05;117135;1186;24141;-66
2021/08/30 01:08:32;;;;;;;24.30;17.50;;;;;;;22.87;66.41;99472.02;117448;1183;23427;-66
2021/08/30 01:11:07;;;;;;;20.10;16.00;;;;;;;22.85;66.50;99465.55;117385;1185;21855;-65
2021/08/30 01:13:48;;;;;;;20.20;16.60;;;;;;;22.87;66.40;99467.52;117427;1185;21857;-65
2021/08/30 01:16:16;;;;;;;18.50;14.60;;;;;;;22.87;66.25;99473.80;117344;1182;21854;-60
2021/08/30 01:18:45;;;;;;;19.90;15.70;;;;;;;22.86;66.03;99471.89;117181;1184;24162;-60
2021/08/30 01:21:23;;;;;;;20.50;15.90;;;;;;;22.84;66.22;99474.40;117340;1186;21860;-59
2021/08/30 01:23:56;;;;;;;20.30;15.40;;;;;;;22.81;66.12;99477.64;117422;1183;23538;-59
2021/08/30 01:26:25;;;;;;;21.10;16.50;;;;;;;22.77;66.19;99479.38;117425;1183;22651;-66
2021/08/30 01:29:06;;;;;;;26.50;16.70;;;;;;;22.71;66.11;99485.56;117425;1184;22915;-60
2021/08/30 01:31:41;;;;;;;22.40;16.90;;;;;;;22.68;66.27;99485.59;117468;1185;21857;-66
2021/08/30 01:34:09;;;;;;;23.70;17.30;;;;;;;22.69;66.33;99486.23;117337;1185;22623;-66
2021/08/30 01:36:39;;;;;;;23.70;17.20;;;;;;;22.74;66.31;99483.56;117371;1184;23494;-59
2021/08/30 01:39:07;;;;;;;23.90;17.00;;;;;;;22.80;66.19;99485.27;117318;1185;21855;-60
2021/08/30 01:41:36;;;;;;;22.90;16.30;;;;;;;22.81;66.09;99487.12;117367;1184;22918;-60
2021/08/30 01:44:06;;;;;;;21.80;17.90;;;;;;;22.82;66.18;99492.80;117154;1186;22310;-65
2021/08/30 01:46:36;;;;;;;20.60;18.00;;;;;;;22.80;66.28;99495.39;117316;1185;24176;-65
2021/08/30 01:49:06;;;;;;;23.70;20.60;;;;;;;22.65;66.68;99490.68;117428;1185;22918;-59
2021/08/30 01:51:35;;;;;;;23.00;20.10;;;;;;;22.66;66.79;99488.64;117452;1185;23547;-59
2021/08/30 01:54:04;;;;;;;23.20;20.90;;;;;;;22.67;66.80;99488.37;117363;1179;23452;-65
2021/08/30 01:56:33;;;;;;;33.00;21.70;;;;;;;22.65;67.05;99486.02;117396;1183;23844;-64
2021/08/30 02:01:48;;;;;;;25.10;21.90;;;;;;;22.69;67.78;99486.98;117437;1183;24178;-59
2021/08/30 02:04:16;;;;;;;31.40;23.00;;;;;;;22.75;67.94;99487.63;117532;1182;23461;-65
2021/08/30 02:06:44;;;;;;;38.00;24.80;;;;;;;22.78;67.59;99484.65;117380;1183;21855;-59
2021/08/30 02:09:13;;;;;;;29.60;23.30;;;;;;;22.78;67.42;99484.48;117098;1187;23467;-65
2021/08/30 02:11:41;;;;;;;39.70;23.00;;;;;;;22.79;67.04;99488.73;117395;1186;21845;-59
2021/08/30 02:14:09;;;;;;;100.90;57.60;;;;;;;22.74;66.91;99493.41;117169;1184;21855;-65
2021/08/30 02:16:38;;;;;;;67.00;42.80;;;;;;;22.70;67.60;99498.00;117334;1185;21856;-66
2021/08/30 02:19:18;;;;;;;57.20;35.00;;;;;;;22.72;67.96;99504.10;117318;1185;23567;-59
2021/08/30 02:21:50;;;;;;;;;;;;;;;22.80;68.64;99498.26;117414;1184;21839;-65
2021/08/30 02:24:27;;;;;;;43.10;29.40;;;;;;;22.84;69.05;99500.10;117468;1182;24147;-65
2021/08/30 02:27:05;;;;;;;47.60;30.90;;;;;;;22.90;69.00;99502.76;117399;1185;22048;-66
2021/08/30 02:29:52;;;;;;;40.30;30.30;;;;;;;22.96;68.65;99504.21;117587;1181;21869;-66
2021/08/30 02:32:20;;;;;;;35.20;27.60;;;;;;;23.02;68.48;99505.73;117306;1184;22654;-66
2021/08/30 02:34:53;;;;;;;35.30;28.10;;;;;;;23.06;68.12;99506.11;117201;1186;23442;-66
2021/08/30 02:37:23;;;;;;;31.90;26.40;;;;;;;23.03;67.93;99503.69;117362;1182;22311;-66
2021/08/30 02:39:51;;;;;;;32.10;25.70;;;;;;;22.94;67.56;99503.86;117386;1184;21866;-65
2021/08/30 02:42:19;;;;;;;31.40;25.70;;;;;;;22.78;67.53;99509.33;117412;1182;23442;-66
2021/08/30 02:44:47;;;;;;;32.50;26.40;;;;;;;22.65;67.68;99511.26;117347;1184;21855;-66
2021/08/30 02:47:17;;;;;;;29.40;25.60;;;;;;;22.54;67.63;99515.48;117195;1185;21857;-66
2021/08/30 02:49:45;;;;;;;32.00;25.70;;;;;;;22.50;67.64;99520.11;117421;1182;21855;-66
2021/08/30 02:52:15;;;;;;;33.80;26.30;;;;;;;22.41;67.64;99519.27;117219;1185;23445;-65
2021/08/30 02:54:44;;;;;;;34.80;26.90;;;;;;;22.39;67.47;99518.02;117447;1185;21886;-65
2021/08/30 02:57:12;;;;;;;31.60;25.10;;;;;;;22.39;67.22;99517.63;117422;1182;21854;-59
2021/08/30 02:59:41;;;;;;;37.00;26.40;;;;;;;22.31;67.19;99517.49;117425;1185;21854;-59
2021/08/30 03:02:10;;;;;;;29.80;24.90;;;;;;;22.25;67.39;99517.26;117370;1185;22916;-65
2021/08/30 03:04:38;;;;;;;29.80;24.80;;;;;;;22.21;67.35;99518.23;117415;1184;22946;-59
2021/08/30 03:07:07;;;;;;;30.60;25.40;;;;;;;22.20;67.39;99520.15;117097;1186;23439;-59
2021/08/30 03:09:35;;;;;;;32.40;25.50;;;;;;;22.23;67.54;99521.67;117097;1187;21864;-60
2021/08/30 03:12:04;;;;;;;31.80;25.10;;;;;;;22.28;67.30;99523.84;117361;1181;23465;-65
2021/08/30 03:14:32;;;;;;;30.80;25.60;;;;;;;22.33;66.98;99525.44;117454;1184;21846;-65
2021/08/30 03:17:02;;;;;;;33.30;25.50;;;;;;;22.36;66.83;99526.45;117416;1185;23561;-65
2021/08/30 03:19:30;;;;;;;32.20;25.70;;;;;;;22.38;66.95;99526.85;117379;1184;23573;-66
2021/08/30 03:21:59;;;;;;;37.60;26.20;;;;;;;22.42;66.95;99531.55;117079;1187;21848;-59
2021/08/30 03:24:27;;;;;;;33.80;24.30;;;;;;;22.44;66.82;99532.48;117405;1184;22319;-66
2021/08/30 03:26:56;;;;;;;40.90;26.80;;;;;;;22.45;66.73;99534.41;117463;1185;23449;-65
2021/08/30 03:29:24;;;;;;;40.60;24.80;;;;;;;22.47;66.80;99535.34;117358;1185;22132;-59
2021/08/30 03:31:52;;;;;;;32.70;26.40;;;;;;;22.45;66.88;99536.17;117426;1182;23557;-59
2021/08/30 03:34:20;;;;;;;30.60;26.50;;;;;;;22.43;66.95;99535.58;117333;1184;23466;-59
2021/08/30 03:36:48;;;;;;;31.10;26.50;;;;;;;22.45;66.80;99532.80;117366;1183;21858;-65
2021/08/30 03:39:16;;;;;;;31.70;26.00;;;;;;;22.48;66.81;99528.95;117241;1185;22922;-58
2021/08/30 03:41:46;;;;;;;35.60;27.40;;;;;;;22.44;66.82;99527.09;117159;1188;23462;-59
2021/08/30 03:44:14;;;;;;;32.30;26.60;;;;;;;22.47;66.81;99528.39;117431;1184;21858;-60
2021/08/30 03:46:43;;;;;;;47.30;36.60;;;;;;;22.47;66.88;99525.46;117420;1182;21993;-66
2021/08/30 03:49:11;;;;;;;35.90;29.70;;;;;;;22.48;67.00;99521.45;117449;1183;21854;-59
2021/08/30 03:51:40;;;;;;;35.10;28.60;;;;;;;22.44;67.04;99520.30;117360;1177;21877;-66
2021/08/30 03:54:09;;;;;;;29.40;26.40;;;;;;;22.37;67.22;99520.08;117419;1185;23469;-60
2021/08/30 03:56:37;;;;;;;33.10;27.10;;;;;;;22.30;67.32;99517.02;117445;1181;23469;-59
2021/08/30 03:59:05;;;;;;;35.60;27.50;;;;;;;22.29;67.45;99521.39;117121;1187;23439;-66
2021/08/30 04:01:33;;;;;;;31.10;26.70;;;;;;;22.30;67.54;99519.38;117361;1185;24168;-66
2021/08/30 04:04:05;;;;;;;31.80;26.80;;;;;;;22.34;67.46;99516.97;117218;1182;22517;-66
2021/08/30 04:06:33;;;;;;;33.20;26.70;;;;;;;22.38;67.63;99517.89;117379;1184;22919;-58
2021/08/30 04:09:01;;;;;;;34.70;28.10;;;;;;;22.46;67.53;99521.96;117365;1183;23426;-59
2021/08/30 04:11:34;;;;;;;32.20;27.50;;;;;;;22.54;67.49;99520.28;117412;1184;23493;-59
2021/08/30 04:14:09;;;;;;;31.40;25.90;;;;;;;22.58;67.54;99523.37;117417;1187;23468;-59
2021/08/30 04:16:51;;;;;;;32.90;25.70;;;;;;;22.65;67.77;99525.01;117348;1182;23443;-60
2021/08/30 04:19:39;;;;;;;33.10;26.30;;;;;;;22.69;68.09;99533.96;117408;1184;23519;-67
2021/08/30 04:22:07;;;;;;;32.00;27.10;;;;;;;22.74;68.41;99537.22;117338;1184;21860;-66
2021/08/30 04:24:35;;;;;;;34.90;27.60;;;;;;;22.78;68.50;99535.78;117359;1186;21859;-66
2021/08/30 04:27:03;;;;;;;33.10;28.70;;;;;;;22.85;68.52;99539.78;117429;1184;23440;-66
2021/08/30 04:29:33;;;;;;;41.70;29.60;;;;;;;22.92;68.34;99541.92;117409;1185;21940;-59
2021/08/30 04:32:04;;;;;;;39.50;28.30;;;;;;;23.00;68.38;99543.59;117366;1185;23611;-59
2021/08/30 04:34:32;;;;;;;37.00;30.10;;;;;;;23.07;68.30;99548.09;117359;1184;21845;-69
2021/08/30 04:37:00;;;;;;;35.10;28.50;;;;;;;23.11;68.22;99550.64;117403;1183;22793;-59
2021/08/30 04:39:28;;;;;;;35.60;29.50;;;;;;;23.11;68.20;99549.38;117347;1184;21830;-68
2021/08/30 04:41:57;;;;;;;31.50;28.20;;;;;;;23.11;68.33;99551.34;117438;1184;23570;-60
2021/08/30 04:44:25;;;;;;;41.20;29.90;;;;;;;23.10;68.44;99556.09;117362;1181;23544;-67
2021/08/30 04:46:53;;;;;;;32.60;29.20;;;;;;;23.09;68.57;99555.47;117387;1188;22897;-66
2021/08/30 04:49:21;;;;;;;33.20;29.70;;;;;;;23.11;68.55;99556.91;117359;1185;24226;-68
2021/08/30 04:51:49;;;;;;;31.50;28.30;;;;;;;23.15;68.53;99555.66;117360;1185;21858;-65
2021/08/30 04:54:20;;;;;;;30.80;27.50;;;;;;;23.21;68.67;99559.21;117348;1185;21859;-68
2021/08/30 04:56:48;;;;;;;30.70;27.50;;;;;;;23.23;68.76;99558.72;117332;1186;21925;-66
2021/08/30 04:59:16;;;;;;;30.90;27.90;;;;;;;23.28;68.86;99557.91;117317;1185;23432;-67
2021/08/30 05:01:44;;;;;;;33.30;29.90;;;;;;;23.25;68.82;99559.95;117368;1185;21857;-60
2021/08/30 05:04:13;;;;;;;32.20;28.90;;;;;;;23.19;68.86;99560.91;117394;1185;23567;-66
2021/08/30 05:06:41;;;;;;;30.30;27.20;;;;;;;23.17;68.89;99556.58;117384;1184;23465;-66
2021/08/30 05:09:09;;;;;;;33.00;29.60;;;;;;;23.16;68.90;99555.98;117327;1185;21849;-60
2021/08/30 05:11:37;;;;;;;33.10;29.10;;;;;;;23.14;68.89;99557.35;117319;1182;23440;-65
2021/08/30 05:14:05;;;;;;;32.70;29.30;;;;;;;23.20;68.72;99555.49;117352;1186;21854;-59
2021/08/30 05:16:34;;;;;;;33.30;28.30;;;;;;;23.15;68.70;99561.77;117403;1184;21898;-59
2021/08/30 05:19:03;;;;;;;31.10;27.80;;;;;;;23.19;68.71;99560.77;117425;1185;23446;-59
2021/08/30 05:21:31;;;;;;;30.70;27.40;;;;;;;23.29;68.44;99561.42;117406;1184;21856;-59
2021/08/30 05:23:59;;;;;;;33.20;27.80;;;;;;;23.41;68.13;99565.13;117366;1183;21855;-66
2021/08/30 05:26:28;;;;;;;41.10;28.40;;;;;;;23.46;68.30;99569.04;117423;1185;21850;-60
2021/08/30 05:28:56;;;;;;;30.30;26.70;;;;;;;23.44;68.40;99568.47;117449;1184;23449;-65
2021/08/30 05:31:25;;;;;;;31.10;27.00;;;;;;;23.49;68.51;99572.61;117397;1182;23442;-59
2021/08/30 05:33:53;;;;;;;29.40;25.10;;;;;;;23.54;68.56;99575.94;117516;1185;23524;-64
2021/08/30 05:36:21;;;;;;;30.90;27.60;;;;;;;23.60;68.59;99576.40;117415;1184;23449;-65
2021/08/30 05:38:51;;;;;;;35.20;27.40;;;;;;;23.65;68.46;99578.12;117307;1186;23468;-59
2021/08/30 05:41:19;;;;;;;39.20;27.70;;;;;;;23.68;68.58;99581.88;117433;1185;22532;-65
2021/08/30 05:43:48;;;;;;;37.00;30.70;;;;;;;23.67;68.58;99580.66;117352;1185;23468;-60
2021/08/30 05:46:16;;;;;;;32.40;28.60;;;;;;;23.71;68.41;99579.80;117431;1184;21862;-65
2021/08/30 05:48:45;;;;;;;32.40;27.20;;;;;;;23.80;68.46;99580.85;117297;1186;22713;-65
2021/08/30 05:51:14;;;;;;;32.50;26.10;;;;;;;23.98;68.20;99581.80;117506;1184;21850;-65
2021/08/30 05:53:43;;;;;;;34.30;27.50;;;;;;;24.12;68.05;99581.21;117461;1185;23455;-59
2021/08/30 05:56:11;;;;;;;33.20;27.90;;;;;;;24.16;68.22;99583.94;117479;1185;21845;-66
2021/08/30 05:58:39;;;;;;;38.60;30.80;;;;;;;24.24;68.07;99586.86;117408;1181;23439;-62
2021/08/30 06:01:07;;;;;;;32.60;28.60;;;;;;;24.26;67.91;99586.70;117409;1185;21865;-64
2021/08/30 06:03:36;;;;;;;30.60;27.40;;;;;;;24.28;68.01;99589.91;117353;1185;22809;-65
2021/08/30 06:06:05;;;;;;;32.70;26.40;;;;;;;24.36;67.90;99594.66;117394;1185;24160;-60
2021/08/30 06:08:33;;;;;;;31.60;28.20;;;;;;;24.45;67.89;99592.34;117412;1184;23455;-63
2021/08/30 06:11:02;;;;;;;36.00;28.30;;;;;;;24.57;67.64;99596.21;117464;1185;24141;-59
2021/08/30 06:13:32;;;;;;;32.20;27.40;;;;;;;24.69;67.68;99597.34;117352;1185;23529;-65
2021/08/30 06:16:00;;;;;;;31.90;27.90;;;;;;;24.82;67.55;99597.89;117491;1182;24155;-66
2021/08/30 06:18:29;;;;;;;29.00;25.90;;;;;;;24.98;67.29;99601.04;117562;1184;23640;-60
2021/08/30 06:20:57;;;;;;;35.50;30.00;;;;;;;25.11;67.11;99602.79;117305;1184;21939;-60
2021/08/30 06:23:26;;;;;;;31.80;26.90;;;;;;;25.26;67.06;99602.70;117341;1184;21848;-65
2021/08/30 06:25:54;;;;;;;32.20;28.20;;;;;;;25.49;66.74;99605.64;117384;1185;21876;-61
2021/08/30 06:28:22;;;;;;;43.30;29.10;;;;;;;25.60;66.61;99607.63;117400;1184;23469;-60
2021/08/30 06:30:51;;;;;;;33.30;29.20;;;;;;;25.65;66.26;99609.45;117369;1183;21855;-61
2021/08/30 06:33:20;;;;;;;31.40;27.60;;;;;;;25.75;66.19;99607.40;117386;1182;21841;-69
2021/08/30 06:35:48;;;;;;;34.90;28.70;;;;;;;25.88;66.65;99606.34;117391;1185;23459;-58
2021/08/30 06:38:16;;;;;;;45.70;26.00;;;;;;;26.18;66.31;99606.44;117333;1185;21867;-60
2021/08/30 06:40:45;;;;;;;35.30;25.00;;;;;;;26.48;65.90;99603.96;117379;1186;23451;-60
2021/08/30 06:43:13;;;;;;;28.50;25.50;;;;;;;26.67;65.49;99607.38;117359;1185;23447;-59
2021/08/30 06:45:48;;;;;;;30.40;23.30;;;;;;;26.78;64.96;99602.27;117363;1182;24143;-70
2021/08/30 06:48:17;;;;;;;27.40;24.50;;;;;;;26.92;65.03;99605.83;117336;1185;23465;-59
2021/08/30 06:50:45;;;;;;;27.10;24.30;;;;;;;27.09;64.41;99607.69;117432;1185;21895;-59
2021/08/30 06:53:14;;;;;;;26.70;22.80;;;;;;;27.28;64.34;99610.05;117437;1184;22004;-71
2021/08/30 06:55:42;;;;;;;26.40;23.30;;;;;;;27.49;64.09;99611.17;117469;1185;21846;-70
2021/08/30 06:58:11;;;;;;;29.50;22.80;;;;;;;27.64;63.78;99612.27;117337;1184;21966;-59
2021/08/30 07:00:39;;;;;;;25.80;23.00;;;;;;;27.82;62.62;99615.55;117358;1184;23466;-59
2021/08/30 07:03:08;;;;;;;25.50;22.90;;;;;;;27.94;62.80;99618.37;117387;1185;22543;-70
2021/08/30 07:05:37;;;;;;;26.30;22.20;;;;;;;28.12;62.95;99615.21;117332;1184;22701;-69
2021/08/30 07:08:05;;;;;;;25.20;22.50;;;;;;;28.32;62.44;99616.33;117324;1186;21915;-59
2021/08/30 07:10:34;;;;;;;27.20;21.40;;;;;;;28.39;61.88;99619.27;117423;1182;21856;-59
2021/08/30 07:13:02;;;;;;;23.40;20.90;;;;;;;28.42;61.91;99620.55;117365;1184;22933;-68
2021/08/30 07:15:35;;;;;;;25.70;21.40;;;;;;;28.55;61.57;99620.03;117375;1185;21848;-59
2021/08/30 07:18:03;;;;;;;25.80;21.80;;;;;;;28.84;61.71;99622.95;117330;1176;21845;-59
2021/08/30 07:20:32;;;;;;;25.10;20.60;;;;;;;29.05;61.64;99627.65;117339;1185;23581;-59
2021/08/30 07:23:00;;;;;;;25.40;21.50;;;;;;;29.02;61.11;99627.22;117310;1186;21859;-71
2021/08/30 07:25:28;;;;;;;30.80;22.50;;;;;;;29.13;61.38;99628.89;117342;1185;21845;-60
2021/08/30 07:27:56;;;;;;;64.30;32.60;;;;;;;29.35;61.63;99622.47;117478;1185;21887;-73
2021/08/30 07:30:25;;;;;;;62.50;30.40;;;;;;;29.69;60.93;99622.41;117289;1184;22909;-73
2021/08/30 07:32:53;;;;;;;28.60;21.00;;;;;;;30.02;60.18;99625.94;117319;1186;21859;-72
2021/08/30 07:35:21;;;;;;;32.10;22.30;;;;;;;30.18;59.88;99623.95;117286;1189;21921;-74
2021/08/30 07:37:49;;;;;;;37.90;24.20;;;;;;;30.40;59.75;99620.34;117450;1183;21857;-72
2021/08/30 07:40:17;;;;;;;33.40;22.10;;;;;;;30.62;59.07;99625.44;117357;1186;21850;-71
2021/08/30 07:42:50;;;;;;;28.70;22.00;;;;;;;30.66;57.84;99628.27;117325;1186;23465;-59
2021/08/30 07:45:18;;;;;;;25.00;20.70;;;;;;;30.81;58.42;99629.83;117319;1184;23470;-59
2021/08/30 07:47:47;;;;;;;23.40;19.40;;;;;;;30.69;58.10;99627.38;117345;1185;21899;-59
2021/08/30 07:50:15;;;;;;;23.40;20.90;;;;;;;30.72;58.94;99627.23;117434;1185;23443;-69
2021/08/30 07:52:45;;;;;;;22.30;19.70;;;;;;;30.99;58.75;99627.02;117332;1184;23538;-70
2021/08/30 07:55:14;;;;;;;25.60;19.40;;;;;;;31.30;58.23;99621.64;117416;1185;23560;-70
2021/08/30 07:57:42;;;;;;;21.80;18.50;;;;;;;31.68;57.59;99620.89;117409;1183;21932;-61
2021/08/30 08:00:12;;;;;;;24.30;18.60;;;;;;;31.89;57.45;99626.06;117464;1184;23458;-70
2021/08/30 08:02:40;;;;;;;20.80;18.40;;;;;;;32.13;56.93;99626.42;117367;1182;22918;-68
2021/08/30 08:05:09;;;;;;;22.20;18.80;;;;;;;32.32;55.82;99630.45;117582;1185;23452;-71
2021/08/30 08:07:39;;;;;;;;;;;;;;;32.42;56.19;99631.66;117300;1182;23454;-71
2021/08/30 08:10:08;;;;;;;23.60;18.70;;;;;;;32.40;56.05;99630.08;117380;1184;22845;-60
2021/08/30 08:12:36;;;;;;;22.70;18.50;;;;;;;32.40;55.17;99630.63;117433;1185;21854;-59
2021/08/30 08:15:22;;;;;;;20.80;17.60;;;;;;;32.47;55.75;99631.25;117315;1185;23499;-72
2021/08/30 08:17:51;;;;;;;21.60;18.10;;;;;;;32.63;55.57;99630.09;117295;1186;21848;-61
2021/08/30 08:20:20;;;;;;;20.30;17.10;;;;;;;32.79;54.65;99632.59;117410;1181;21856;-72
2021/08/30 08:22:48;;;;;;;20.80;16.60;;;;;;;32.86;55.36;99631.80;117375;1185;21856;-61
2021/08/30 08:25:16;;;;;;;19.70;17.70;;;;;;;33.07;55.36;99632.17;117460;1185;21857;-61
2021/08/30 08:27:47;;;;;;;21.00;17.40;;;;;;;33.34;54.51;99637.69;117380;1185;21908;-72
2021/08/30 08:30:16;;;;;;;21.60;19.20;;;;;;;33.68;54.42;99636.39;117326;1185;23445;-62
2021/08/30 08:32:46;;;;;;;27.90;20.90;;;;;;;33.77;54.18;99636.77;117342;1185;22628;-61
2021/08/30 08:35:14;;;;;;;23.00;20.30;;;;;;;33.73;53.65;99633.62;117344;1184;22749;-61
2021/08/30 08:37:42;;;;;;;31.90;19.00;;;;;;;33.78;53.93;99633.67;117360;1180;22916;-61
2021/08/30 08:40:12;;;;;;;23.40;18.80;;;;;;;33.90;52.14;99633.83;117406;1188;21886;-72
2021/08/30 08:42:40;;;;;;;22.80;17.30;;;;;;;33.78;52.37;99637.30;117362;1188;21857;-74
2021/08/30 08:45:11;;;;;;;22.00;18.20;;;;;;;33.80;53.19;99636.21;117439;1185;22155;-74
2021/08/30 08:47:40;;;;;;;21.10;17.90;;;;;;;33.91;52.06;99639.51;117440;1181;21847;-61
2021/08/30 08:50:10;;;;;;;24.20;17.90;;;;;;;34.06;53.20;99635.19;117449;1182;21985;-62
2021/08/30 08:52:42;;;;;;;21.60;18.10;;;;;;;34.18;52.66;99634.84;117336;1185;21872;-72
2021/08/30 08:55:14;;;;;;;19.30;16.50;;;;;;;34.27;51.92;99635.40;117411;1184;21855;-62
2021/08/30 08:57:47;;;;;;;25.10;17.90;;;;;;;34.37;51.23;99635.77;117340;1183;23520;-64
2021/08/30 09:00:16;;;;;;;18.60;16.10;;;;;;;34.33;50.44;99640.27;117400;1185;24226;-63
2021/08/30 09:02:49;;;;;;;18.80;16.80;;;;;;;34.36;51.43;99638.75;117398;1182;21964;-73
2021/08/30 09:05:24;;;;;;;45.80;18.90;;;;;;;34.42;51.63;99632.94;117463;1185;22914;-61
2021/08/30 09:07:56;;;;;;;18.00;16.10;;;;;;;34.57;50.43;99630.92;117449;1185;21869;-62
2021/08/30 09:10:26;;;;;;;17.10;15.00;;;;;;;34.72;51.30;99631.70;117443;1185;23548;-62
2021/08/30 09:13:05;;;;;;;;;;;;;;;34.85;51.71;99629.38;117368;1184;21806;-73
2021/08/30 09:15:39;;;;;;;17.20;14.80;;;;;;;35.03;50.95;99631.33;117426;1185;21865;-72
2021/08/30 09:18:10;;;;;;;18.80;15.80;;;;;;;35.50;49.50;99627.52;117411;1183;23570;-61
2021/08/30 09:20:39;;;;;;;19.20;16.10;;;;;;;35.24;48.76;99630.40;117391;1185;21858;-60
2021/08/30 09:23:14;;;;;;;25.00;15.70;;;;;;;35.18;51.23;99632.13;117439;1185;21856;-72
2021/08/30 09:25:43;;;;;;;17.90;15.90;;;;;;;35.04;51.14;99631.39;117345;1185;22811;-61
2021/08/30 09:28:11;;;;;;;18.20;16.30;;;;;;;35.01;50.20;99637.08;117270;1183;21865;-72
2021/08/30 09:30:39;;;;;;;17.50;15.50;;;;;;;34.94;49.67;99638.30;117408;1184;24775;-73
2021/08/30 09:33:07;;;;;;;17.70;15.30;;;;;;;34.99;50.01;99636.35;117422;1185;22807;-59
2021/08/30 09:35:36;;;;;;;18.90;15.50;;;;;;;35.14;51.64;99633.98;117114;1189;23446;-60
2021/08/30 09:38:04;;;;;;;18.70;15.30;;;;;;;35.25;52.43;99635.77;117343;1184;23570;-70
2021/08/30 09:40:36;;;;;;;17.50;15.50;;;;;;;35.35;50.93;99635.77;117338;1184;21845;-60
2021/08/30 09:43:04;;;;;;;18.20;16.20;;;;;;;35.10;50.67;99635.48;117452;1182;22169;-70
2021/08/30 09:45:33;;;;;;;18.10;15.60;;;;;;;35.07;51.58;99634.65;117177;1185;23475;-59
2021/08/30 09:48:02;;;;;;;17.40;15.60;;;;;;;35.18;50.41;99634.19;117392;1181;23459;-72
2021/08/30 09:50:32;;;;;;;17.70;15.30;;;;;;;35.23;48.96;99637.09;117362;1183;23457;-72
2021/08/30 09:53:01;;;;;;;17.30;14.90;;;;;;;35.31;51.55;99639.00;117389;1186;22989;-59
2021/08/30 09:55:31;;;;;;;16.90;15.30;;;;;;;35.59;53.49;99637.69;117439;1184;23651;-71
2021/08/30 09:57:59;;;;;;;16.40;14.90;;;;;;;35.81;53.84;99641.77;117362;1185;21998;-61
2021/08/30 10:00:29;;;;;;;16.10;14.50;;;;;;;35.94;52.50;99646.13;117406;1184;21855;-59
2021/08/30 10:02:58;;;;;;;19.90;15.80;;;;;;;35.99;52.61;99642.09;117412;1182;23469;-59
2021/08/30 10:05:27;;;;;;;;;;;;;;;36.01;52.07;99646.60;117323;1186;22819;-70
2021/08/30 10:07:59;;;;;;;21.60;15.20;;;;;;;36.07;53.29;99649.07;117305;1184;22917;-60
2021/08/30 10:10:47;;;;;;;17.70;16.00;;;;;;;36.04;51.90;99651.34;117424;1185;21856;-59
2021/08/30 10:13:23;;;;;;;18.70;14.90;;;;;;;35.97;53.88;99650.28;117259;1176;23656;-59
2021/08/30 10:16:11;;;;;;;16.40;14.50;;;;;;;36.06;55.49;99652.73;117171;1187;22903;-61
2021/08/30 10:18:47;;;;;;;17.50;15.60;;;;;;;36.07;55.31;99656.62;117041;1187;23548;-62
2021/08/30 10:21:18;;;;;;;17.90;15.90;;;;;;;36.05;53.41;99658.80;117355;1185;23497;-60
2021/08/30 10:23:50;;;;;;;20.30;16.10;;;;;;;35.96;54.56;99653.22;117370;1185;21848;-61
2021/08/30 10:26:19;;;;;;;18.00;15.50;;;;;;;35.95;54.79;99655.91;117305;1186;23548;-59
2021/08/30 10:28:48;;;;;;;17.20;15.50;;;;;;;35.87;56.15;99660.99;117426;1184;23548;-70
2021/08/30 10:31:18;;;;;;;17.90;15.50;;;;;;;35.90;57.13;99660.43;117442;1185;23468;-72
2021/08/30 10:33:51;;;;;;;20.20;15.60;;;;;;;36.03;58.11;99658.86;117383;1183;22972;-73
2021/08/30 10:36:21;;;;;;;19.40;15.70;;;;;;;36.19;57.67;99662.65;117345;1185;21933;-72
2021/08/30 10:39:19;;;;;;;;;;;;;;;36.27;58.27;99664.56;117380;1185;21839;-72
2021/08/30 10:41:48;;;;;;;21.30;15.90;;;;;;;36.37;58.82;99664.19;117032;1188;21860;-73
2021/08/30 10:44:21;;;;;;;17.30;14.80;;;;;;;36.42;58.66;99667.32;117324;1185;21859;-70
2021/08/30 10:46:55;;;;;;;16.80;15.10;;;;;;;36.61;58.50;99665.58;117267;1186;21887;-72
2021/08/30 10:49:33;;;;;;;15.90;14.10;;;;;;;36.71;58.00;99661.50;117246;1183;23551;-60
2021/08/30 10:52:05;;;;;;;15.80;14.20;;;;;;;36.70;58.92;99660.19;118834;1185;22747;-60
2021/08/30 10:54:34;;;;;;;21.30;15.30;;;;;;;36.84;58.65;99654.36;118852;1183;21868;-60
2021/08/30 10:57:03;;;;;;;15.60;13.70;;;;;;;37.01;59.19;99653.14;117201;1185;24165;-70
2021/08/30 10:59:31;;;;;;;14.30;12.60;;;;;;;37.19;57.66;99651.02;117284;1183;22629;-70
2021/08/30 11:02:03;;;;;;;15.60;13.40;;;;;;;37.30;56.98;99651.14;117390;1185;21857;-70
2021/08/30 11:04:32;;;;;;;15.30;12.30;;;;;;;37.31;57.82;99653.20;117462;1183;22474;-59
2021/08/30 11:07:00;;;;;;;17.80;12.90;;;;;;;37.32;59.02;99654.04;117391;1183;21885;-60
2021/08/30 11:09:28;;;;;;;13.80;12.40;;;;;;;37.36;59.32;99654.20;117277;1188;21852;-58
2021/08/30 11:12:11;;;;;;;13.60;12.10;;;;;;;37.39;58.76;99653.48;117389;1180;23589;-59
2021/08/30 11:14:59;;;;;;;13.10;11.50;;;;;;;37.50;59.32;99652.36;117355;1186;21870;-60
2021/08/30 11:17:33;;;;;;;12.80;11.60;;;;;;;37.48;60.07;99648.60;117402;1185;22567;-60
2021/08/30 11:20:02;;;;;;;15.30;11.60;;;;;;;37.41;59.03;99649.58;117324;1182;22915;-57
2021/08/30 11:22:30;;;;;;;13.00;11.40;;;;;;;37.33;58.78;99649.36;117270;1183;23459;-58
2021/08/30 11:25:00;;;;;;;13.20;11.30;;;;;;;37.29;59.90;99647.73;117093;1182;22781;-59
2021/08/30 11:27:30;;;;;;;12.80;11.30;;;;;;;37.36;59.40;99650.33;117179;1179;24166;-59